sensor_id;sensor_type;location;lat;lon;timestamp;P1;durP1;ratioP1;P2;durP2;ratioP2
16472;SDS011;8347;52.486;13.432;2024-02-04T00:00:30;10.75;;;3.42;;
16472;SDS011;8347;52.486;13.432;2024-02-04T00:03:16;10.45;;;3.67;;
16472;SDS011;8347;52.486;13.432;2024-02-04T00:06:03;12.50;;;3.60;;
16472;SDS011;8347;52.486;13.432;2024-02-04T00:08:49;16.58;;;4.43;;
16472;SDS011;8347;52.486;13.432;2024-02-04T00:11:35;15.77;;;5.32;;
16472;SDS011;8347;52.486;13.432;2024-02-04T00:14:22;18.13;;;4.60;;
16472;SDS011;8347;52.486;13.432;2024-02-04T00:17:09;10.40;;;3.55;;
16472;SDS011;8347;52.486;13.432;2024-02-04T00:19:56;11.85;;;4.60;;
16472;SDS011;8347;52.486;13.432;2024-02-04T00:22:42;11.35;;;3.67;;
16472;SDS011;8347;52.486;13.432;2024-02-04T00:25:29;9.55;;;2.55;;
16472;SDS011;8347;52.486;13.432;2024-02-04T00:28:15;12.60;;;3.00;;
16472;SDS011;8347;52.486;13.432;2024-02-04T00:31:04;12.13;;;2.88;;
16472;SDS011;8347;52.486;13.432;2024-02-04T00:33:51;8.70;;;2.92;;
16472;SDS011;8347;52.486;13.432;2024-02-04T00:36:37;11.77;;;3.10;;
16472;SDS011;8347;52.486;13.432;2024-02-04T00:39:23;10.27;;;3.30;;
16472;SDS011;8347;52.486;13.432;2024-02-04T00:42:10;12.48;;;4.57;;
16472;SDS011;8347;52.486;13.432;2024-02-04T00:44:57;3.20;;;2.35;;
16472;SDS011;8347;52.486;13.432;2024-02-04T00:47:43;13.35;;;3.72;;
16472;SDS011;8347;52.486;13.432;2024-02-04T00:50:30;9.10;;;2.80;;
16472;SDS011;8347;52.486;13.432;2024-02-04T00:53:16;19.33;;;3.63;;
16472;SDS011;8347;52.486;13.432;2024-02-04T00:56:03;15.30;;;4.70;;
16472;SDS011;8347;52.486;13.432;2024-02-04T00:58:50;17.17;;;4.18;;
16472;SDS011;8347;52.486;13.432;2024-02-04T01:01:37;13.82;;;3.45;;
16472;SDS011;8347;52.486;13.432;2024-02-04T01:04:23;12.88;;;3.83;;
16472;SDS011;8347;52.486;13.432;2024-02-04T01:07:10;13.10;;;3.58;;
16472;SDS011;8347;52.486;13.432;2024-02-04T01:09:56;13.43;;;4.10;;
16472;SDS011;8347;52.486;13.432;2024-02-04T01:12:42;18.33;;;4.47;;
16472;SDS011;8347;52.486;13.432;2024-02-04T01:15:29;13.45;;;3.75;;
16472;SDS011;8347;52.486;13.432;2024-02-04T01:18:16;15.15;;;3.67;;
16472;SDS011;8347;52.486;13.432;2024-02-04T01:21:02;17.77;;;3.47;;
16472;SDS011;8347;52.486;13.432;2024-02-04T01:23:49;15.13;;;4.95;;
16472;SDS011;8347;52.486;13.432;2024-02-04T01:26:35;10.50;;;2.90;;
16472;SDS011;8347;52.486;13.432;2024-02-04T01:29:22;16.60;;;3.63;;
16472;SDS011;8347;52.486;13.432;2024-02-04T01:32:08;15.88;;;2.90;;
16472;SDS011;8347;52.486;13.432;2024-02-04T01:34:55;10.68;;;2.65;;
16472;SDS011;8347;52.486;13.432;2024-02-04T01:37:42;9.95;;;3.20;;
16472;SDS011;8347;52.486;13.432;2024-02-04T01:40:34;14.75;;;3.35;;
16472;SDS011;8347;52.486;13.432;2024-02-04T01:43:21;7.60;;;2.35;;
16472;SDS011;8347;52.486;13.432;2024-02-04T01:46:08;16.90;;;3.22;;
16472;SDS011;8347;52.486;13.432;2024-02-04T01:48:55;17.88;;;3.40;;
16472;SDS011;8347;52.486;13.432;2024-02-04T01:51:42;8.52;;;2.30;;
16472;SDS011;8347;52.486;13.432;2024-02-04T01:54:29;8.90;;;2.20;;
16472;SDS011;8347;52.486;13.432;2024-02-04T01:57:17;10.98;;;2.90;;
16472;SDS011;8347;52.486;13.432;2024-02-04T02:00:04;12.63;;;3.35;;
16472;SDS011;8347;52.486;13.432;2024-02-04T02:02:53;16.80;;;4.07;;
16472;SDS011;8347;52.486;13.432;2024-02-04T02:05:40;9.65;;;2.35;;
16472;SDS011;8347;52.486;13.432;2024-02-04T02:08:26;9.05;;;2.70;;
16472;SDS011;8347;52.486;13.432;2024-02-04T02:11:18;13.45;;;3.08;;
16472;SDS011;8347;52.486;13.432;2024-02-04T02:14:05;9.52;;;3.03;;
16472;SDS011;8347;52.486;13.432;2024-02-04T02:17:00;9.50;;;2.60;;
16472;SDS011;8347;52.486;13.432;2024-02-04T02:19:53;9.35;;;2.63;;
16472;SDS011;8347;52.486;13.432;2024-02-04T02:22:48;9.88;;;3.03;;
16472;SDS011;8347;52.486;13.432;2024-02-04T02:25:36;10.48;;;2.80;;
16472;SDS011;8347;52.486;13.432;2024-02-04T02:28:24;16.20;;;2.20;;
16472;SDS011;8347;52.486;13.432;2024-02-04T02:31:10;11.82;;;2.80;;
16472;SDS011;8347;52.486;13.432;2024-02-04T02:33:56;19.65;;;3.30;;
16472;SDS011;8347;52.486;13.432;2024-02-04T02:36:50;7.05;;;2.22;;
16472;SDS011;8347;52.486;13.432;2024-02-04T02:39:40;13.38;;;2.95;;
16472;SDS011;8347;52.486;13.432;2024-02-04T02:42:28;6.80;;;2.20;;
16472;SDS011;8347;52.486;13.432;2024-02-04T02:45:15;17.45;;;4.35;;
16472;SDS011;8347;52.486;13.432;2024-02-04T02:48:03;14.13;;;2.33;;
16472;SDS011;8347;52.486;13.432;2024-02-04T02:50:52;7.28;;;2.47;;
16472;SDS011;8347;52.486;13.432;2024-02-04T02:53:39;11.30;;;5.10;;
16472;SDS011;8347;52.486;13.432;2024-02-04T02:56:26;9.80;;;3.05;;
16472;SDS011;8347;52.486;13.432;2024-02-04T02:59:12;10.35;;;2.60;;
16472;SDS011;8347;52.486;13.432;2024-02-04T03:01:59;9.75;;;2.53;;
16472;SDS011;8347;52.486;13.432;2024-02-04T03:04:45;9.48;;;2.33;;
16472;SDS011;8347;52.486;13.432;2024-02-04T03:07:32;16.48;;;2.72;;
16472;SDS011;8347;52.486;13.432;2024-02-04T03:10:18;10.27;;;2.53;;
16472;SDS011;8347;52.486;13.432;2024-02-04T03:13:05;8.57;;;3.22;;
16472;SDS011;8347;52.486;13.432;2024-02-04T03:15:51;12.52;;;3.15;;
16472;SDS011;8347;52.486;13.432;2024-02-04T03:18:41;8.43;;;2.90;;
16472;SDS011;8347;52.486;13.432;2024-02-04T03:21:29;11.15;;;3.25;;
16472;SDS011;8347;52.486;13.432;2024-02-04T03:24:15;7.20;;;3.10;;
16472;SDS011;8347;52.486;13.432;2024-02-04T03:27:01;8.77;;;2.67;;
16472;SDS011;8347;52.486;13.432;2024-02-04T03:29:48;10.38;;;3.63;;
16472;SDS011;8347;52.486;13.432;2024-02-04T03:32:35;8.70;;;3.38;;
16472;SDS011;8347;52.486;13.432;2024-02-04T03:35:22;9.70;;;3.35;;
16472;SDS011;8347;52.486;13.432;2024-02-04T03:38:08;10.35;;;3.20;;
16472;SDS011;8347;52.486;13.432;2024-02-04T03:40:55;7.18;;;3.47;;
16472;SDS011;8347;52.486;13.432;2024-02-04T03:43:42;14.00;;;4.13;;
16472;SDS011;8347;52.486;13.432;2024-02-04T03:46:28;12.43;;;3.33;;
16472;SDS011;8347;52.486;13.432;2024-02-04T03:49:15;6.80;;;3.20;;
16472;SDS011;8347;52.486;13.432;2024-02-04T03:52:02;10.50;;;3.97;;
16472;SDS011;8347;52.486;13.432;2024-02-04T03:54:48;10.55;;;3.17;;
16472;SDS011;8347;52.486;13.432;2024-02-04T03:57:35;7.72;;;3.58;;
16472;SDS011;8347;52.486;13.432;2024-02-04T04:00:22;11.25;;;3.70;;
16472;SDS011;8347;52.486;13.432;2024-02-04T04:03:08;8.95;;;3.28;;
16472;SDS011;8347;52.486;13.432;2024-02-04T04:05:54;6.30;;;2.42;;
16472;SDS011;8347;52.486;13.432;2024-02-04T04:08:41;10.32;;;2.90;;
16472;SDS011;8347;52.486;13.432;2024-02-04T04:11:27;9.02;;;2.80;;
16472;SDS011;8347;52.486;13.432;2024-02-04T04:14:14;6.53;;;2.55;;
16472;SDS011;8347;52.486;13.432;2024-02-04T04:17:00;9.60;;;2.63;;
16472;SDS011;8347;52.486;13.432;2024-02-04T04:19:46;6.85;;;2.65;;
16472;SDS011;8347;52.486;13.432;2024-02-04T04:22:33;11.20;;;2.95;;
16472;SDS011;8347;52.486;13.432;2024-02-04T04:25:19;6.72;;;3.03;;
16472;SDS011;8347;52.486;13.432;2024-02-04T04:28:06;8.40;;;2.50;;
16472;SDS011;8347;52.486;13.432;2024-02-04T04:30:52;13.05;;;3.17;;
16472;SDS011;8347;52.486;13.432;2024-02-04T04:33:39;7.28;;;3.33;;
16472;SDS011;8347;52.486;13.432;2024-02-04T04:36:26;11.55;;;2.90;;
16472;SDS011;8347;52.486;13.432;2024-02-04T04:39:12;5.97;;;2.78;;
16472;SDS011;8347;52.486;13.432;2024-02-04T04:41:59;10.65;;;2.83;;
16472;SDS011;8347;52.486;13.432;2024-02-04T04:44:45;6.50;;;2.83;;
16472;SDS011;8347;52.486;13.432;2024-02-04T04:47:32;11.38;;;2.42;;
16472;SDS011;8347;52.486;13.432;2024-02-04T04:50:18;7.43;;;2.75;;
16472;SDS011;8347;52.486;13.432;2024-02-04T04:53:05;11.43;;;2.55;;
16472;SDS011;8347;52.486;13.432;2024-02-04T04:55:52;11.32;;;2.80;;
16472;SDS011;8347;52.486;13.432;2024-02-04T04:58:38;9.07;;;2.30;;
16472;SDS011;8347;52.486;13.432;2024-02-04T05:01:25;7.07;;;2.45;;
16472;SDS011;8347;52.486;13.432;2024-02-04T05:04:11;11.15;;;2.65;;
16472;SDS011;8347;52.486;13.432;2024-02-04T05:06:57;16.45;;;2.80;;
16472;SDS011;8347;52.486;13.432;2024-02-04T05:09:44;12.65;;;2.63;;
16472;SDS011;8347;52.486;13.432;2024-02-04T05:12:32;11.18;;;2.45;;
16472;SDS011;8347;52.486;13.432;2024-02-04T05:15:19;8.85;;;2.25;;
16472;SDS011;8347;52.486;13.432;2024-02-04T05:18:07;6.95;;;2.92;;
16472;SDS011;8347;52.486;13.432;2024-02-04T05:20:53;6.25;;;2.13;;
16472;SDS011;8347;52.486;13.432;2024-02-04T05:23:40;6.05;;;2.22;;
16472;SDS011;8347;52.486;13.432;2024-02-04T05:26:26;9.65;;;2.75;;
16472;SDS011;8347;52.486;13.432;2024-02-04T05:29:13;5.78;;;2.22;;
16472;SDS011;8347;52.486;13.432;2024-02-04T05:31:59;10.23;;;2.67;;
16472;SDS011;8347;52.486;13.432;2024-02-04T05:34:46;6.88;;;2.33;;
16472;SDS011;8347;52.486;13.432;2024-02-04T05:37:32;9.52;;;2.60;;
16472;SDS011;8347;52.486;13.432;2024-02-04T05:40:18;5.45;;;2.60;;
16472;SDS011;8347;52.486;13.432;2024-02-04T05:43:06;9.23;;;2.28;;
16472;SDS011;8347;52.486;13.432;2024-02-04T05:45:56;5.15;;;2.42;;
16472;SDS011;8347;52.486;13.432;2024-02-04T05:48:42;7.57;;;2.28;;
16472;SDS011;8347;52.486;13.432;2024-02-04T05:51:31;14.52;;;2.65;;
16472;SDS011;8347;52.486;13.432;2024-02-04T05:54:18;10.00;;;1.98;;
16472;SDS011;8347;52.486;13.432;2024-02-04T05:57:04;3.20;;;2.10;;
16472;SDS011;8347;52.486;13.432;2024-02-04T05:59:52;8.52;;;2.60;;
16472;SDS011;8347;52.486;13.432;2024-02-04T06:02:38;8.55;;;2.65;;
16472;SDS011;8347;52.486;13.432;2024-02-04T06:05:25;5.63;;;1.88;;
16472;SDS011;8347;52.486;13.432;2024-02-04T06:08:20;8.70;;;3.78;;
16472;SDS011;8347;52.486;13.432;2024-02-04T06:11:09;8.85;;;2.55;;
16472;SDS011;8347;52.486;13.432;2024-02-04T06:13:58;10.55;;;2.42;;
16472;SDS011;8347;52.486;13.432;2024-02-04T06:16:56;9.93;;;3.03;;
16472;SDS011;8347;52.486;13.432;2024-02-04T06:19:49;7.47;;;2.70;;
16472;SDS011;8347;52.486;13.432;2024-02-04T06:22:35;7.68;;;2.50;;
16472;SDS011;8347;52.486;13.432;2024-02-04T06:25:28;15.18;;;3.00;;
16472;SDS011;8347;52.486;13.432;2024-02-04T06:28:32;15.48;;;3.70;;
16472;SDS011;8347;52.486;13.432;2024-02-04T06:31:47;7.28;;;3.15;;
16472;SDS011;8347;52.486;13.432;2024-02-04T06:34:34;8.63;;;3.13;;
16472;SDS011;8347;52.486;13.432;2024-02-04T06:37:39;9.00;;;3.38;;
16472;SDS011;8347;52.486;13.432;2024-02-04T06:40:29;10.73;;;3.83;;
16472;SDS011;8347;52.486;13.432;2024-02-04T06:43:30;12.23;;;3.50;;
16472;SDS011;8347;52.486;13.432;2024-02-04T06:46:25;10.30;;;3.55;;
16472;SDS011;8347;52.486;13.432;2024-02-04T06:49:19;11.20;;;3.53;;
16472;SDS011;8347;52.486;13.432;2024-02-04T06:52:15;5.18;;;3.25;;
16472;SDS011;8347;52.486;13.432;2024-02-04T06:55:12;10.90;;;4.60;;
16472;SDS011;8347;52.486;13.432;2024-02-04T06:57:59;10.00;;;4.13;;
16472;SDS011;8347;52.486;13.432;2024-02-04T07:00:48;8.23;;;3.55;;
16472;SDS011;8347;52.486;13.432;2024-02-04T07:03:34;13.73;;;4.85;;
16472;SDS011;8347;52.486;13.432;2024-02-04T07:06:21;7.95;;;4.32;;
16472;SDS011;8347;52.486;13.432;2024-02-04T07:09:07;9.30;;;4.10;;
16472;SDS011;8347;52.486;13.432;2024-02-04T07:11:54;10.40;;;4.82;;
16472;SDS011;8347;52.486;13.432;2024-02-04T07:14:40;10.93;;;4.57;;
16472;SDS011;8347;52.486;13.432;2024-02-04T07:17:27;10.05;;;4.70;;
16472;SDS011;8347;52.486;13.432;2024-02-04T07:20:13;11.13;;;5.45;;
16472;SDS011;8347;52.486;13.432;2024-02-04T07:23:00;10.30;;;4.75;;
16472;SDS011;8347;52.486;13.432;2024-02-04T07:25:46;13.20;;;5.20;;
16472;SDS011;8347;52.486;13.432;2024-02-04T07:28:33;11.50;;;5.25;;
16472;SDS011;8347;52.486;13.432;2024-02-04T07:31:19;15.30;;;4.95;;
16472;SDS011;8347;52.486;13.432;2024-02-04T07:34:07;13.82;;;5.30;;
16472;SDS011;8347;52.486;13.432;2024-02-04T07:36:54;12.80;;;4.97;;
16472;SDS011;8347;52.486;13.432;2024-02-04T07:39:40;13.57;;;5.40;;
16472;SDS011;8347;52.486;13.432;2024-02-04T07:42:27;14.48;;;5.25;;
16472;SDS011;8347;52.486;13.432;2024-02-04T07:45:13;8.38;;;4.57;;
16472;SDS011;8347;52.486;13.432;2024-02-04T07:48:00;6.70;;;4.90;;
16472;SDS011;8347;52.486;13.432;2024-02-04T07:50:48;9.90;;;4.55;;
16472;SDS011;8347;52.486;13.432;2024-02-04T07:53:35;11.77;;;4.40;;
16472;SDS011;8347;52.486;13.432;2024-02-04T07:56:22;8.55;;;4.60;;
16472;SDS011;8347;52.486;13.432;2024-02-04T07:59:08;12.38;;;5.28;;
16472;SDS011;8347;52.486;13.432;2024-02-04T08:01:55;12.45;;;4.72;;
16472;SDS011;8347;52.486;13.432;2024-02-04T08:04:41;11.73;;;4.72;;
16472;SDS011;8347;52.486;13.432;2024-02-04T08:07:27;9.23;;;4.13;;
16472;SDS011;8347;52.486;13.432;2024-02-04T08:10:14;14.13;;;4.72;;
16472;SDS011;8347;52.486;13.432;2024-02-04T08:13:01;8.95;;;4.15;;
16472;SDS011;8347;52.486;13.432;2024-02-04T08:15:48;11.88;;;4.18;;
16472;SDS011;8347;52.486;13.432;2024-02-04T08:18:35;11.10;;;4.28;;
16472;SDS011;8347;52.486;13.432;2024-02-04T08:21:21;10.15;;;5.30;;
16472;SDS011;8347;52.486;13.432;2024-02-04T08:24:08;11.70;;;4.32;;
16472;SDS011;8347;52.486;13.432;2024-02-04T08:26:54;8.25;;;4.82;;
16472;SDS011;8347;52.486;13.432;2024-02-04T08:29:41;11.25;;;4.35;;
16472;SDS011;8347;52.486;13.432;2024-02-04T08:32:28;9.82;;;4.97;;
16472;SDS011;8347;52.486;13.432;2024-02-04T08:35:15;14.65;;;5.75;;
16472;SDS011;8347;52.486;13.432;2024-02-04T08:38:01;14.23;;;5.93;;
16472;SDS011;8347;52.486;13.432;2024-02-04T08:40:48;13.25;;;5.10;;
16472;SDS011;8347;52.486;13.432;2024-02-04T08:43:35;12.65;;;4.60;;
16472;SDS011;8347;52.486;13.432;2024-02-04T08:46:21;8.07;;;4.30;;
16472;SDS011;8347;52.486;13.432;2024-02-04T08:49:08;10.52;;;3.38;;
16472;SDS011;8347;52.486;13.432;2024-02-04T08:51:54;12.18;;;5.20;;
16472;SDS011;8347;52.486;13.432;2024-02-04T08:54:41;15.02;;;4.75;;
16472;SDS011;8347;52.486;13.432;2024-02-04T08:57:28;13.55;;;5.57;;
16472;SDS011;8347;52.486;13.432;2024-02-04T09:00:15;12.73;;;4.97;;
16472;SDS011;8347;52.486;13.432;2024-02-04T09:03:02;8.65;;;3.72;;
16472;SDS011;8347;52.486;13.432;2024-02-04T09:05:48;13.80;;;3.90;;
16472;SDS011;8347;52.486;13.432;2024-02-04T09:08:35;17.70;;;6.35;;
16472;SDS011;8347;52.486;13.432;2024-02-04T09:11:22;12.73;;;4.45;;
16472;SDS011;8347;52.486;13.432;2024-02-04T09:14:10;16.90;;;5.80;;
16472;SDS011;8347;52.486;13.432;2024-02-04T09:16:56;12.65;;;4.65;;
16472;SDS011;8347;52.486;13.432;2024-02-04T09:19:43;12.57;;;2.95;;
16472;SDS011;8347;52.486;13.432;2024-02-04T09:22:30;12.18;;;3.38;;
16472;SDS011;8347;52.486;13.432;2024-02-04T09:25:17;8.55;;;3.13;;
16472;SDS011;8347;52.486;13.432;2024-02-04T09:28:03;8.70;;;2.83;;
16472;SDS011;8347;52.486;13.432;2024-02-04T09:30:50;6.47;;;2.00;;
16472;SDS011;8347;52.486;13.432;2024-02-04T09:33:36;9.27;;;2.05;;
16472;SDS011;8347;52.486;13.432;2024-02-04T09:36:24;7.35;;;2.85;;
16472;SDS011;8347;52.486;13.432;2024-02-04T09:39:10;8.25;;;2.15;;
16472;SDS011;8347;52.486;13.432;2024-02-04T09:41:57;7.72;;;2.08;;
16472;SDS011;8347;52.486;13.432;2024-02-04T09:44:45;6.50;;;1.98;;
16472;SDS011;8347;52.486;13.432;2024-02-04T09:47:32;11.68;;;2.63;;
16472;SDS011;8347;52.486;13.432;2024-02-04T09:50:21;9.48;;;3.67;;
16472;SDS011;8347;52.486;13.432;2024-02-04T09:53:08;9.30;;;2.42;;
16472;SDS011;8347;52.486;13.432;2024-02-04T09:55:55;3.65;;;2.15;;
16472;SDS011;8347;52.486;13.432;2024-02-04T09:58:43;13.70;;;1.92;;
16472;SDS011;8347;52.486;13.432;2024-02-04T10:01:29;8.40;;;2.58;;
16472;SDS011;8347;52.486;13.432;2024-02-04T10:04:17;11.02;;;1.88;;
16472;SDS011;8347;52.486;13.432;2024-02-04T10:07:04;7.80;;;1.73;;
16472;SDS011;8347;52.486;13.432;2024-02-04T10:09:50;9.68;;;2.42;;
16472;SDS011;8347;52.486;13.432;2024-02-04T10:12:37;12.40;;;4.28;;
16472;SDS011;8347;52.486;13.432;2024-02-04T10:15:30;9.25;;;2.78;;
16472;SDS011;8347;52.486;13.432;2024-02-04T10:18:17;7.70;;;2.22;;
16472;SDS011;8347;52.486;13.432;2024-02-04T10:21:04;8.95;;;2.03;;
16472;SDS011;8347;52.486;13.432;2024-02-04T10:26:47;7.82;;;2.28;;
16472;SDS011;8347;52.486;13.432;2024-02-04T10:29:34;10.07;;;2.63;;
16472;SDS011;8347;52.486;13.432;2024-02-04T10:32:21;5.53;;;2.30;;
16472;SDS011;8347;52.486;13.432;2024-02-04T10:35:08;5.50;;;1.23;;
16472;SDS011;8347;52.486;13.432;2024-02-04T10:37:55;4.40;;;1.90;;
16472;SDS011;8347;52.486;13.432;2024-02-04T10:40:41;6.40;;;2.42;;
16472;SDS011;8347;52.486;13.432;2024-02-04T10:43:31;13.77;;;4.30;;
16472;SDS011;8347;52.486;13.432;2024-02-04T10:46:19;7.60;;;3.10;;
16472;SDS011;8347;52.486;13.432;2024-02-04T10:49:06;6.15;;;2.25;;
16472;SDS011;8347;52.486;13.432;2024-02-04T10:51:55;7.93;;;2.08;;
16472;SDS011;8347;52.486;13.432;2024-02-04T10:54:42;6.22;;;2.20;;
16472;SDS011;8347;52.486;13.432;2024-02-04T10:57:30;7.65;;;2.38;;
16472;SDS011;8347;52.486;13.432;2024-02-04T11:00:17;7.43;;;2.33;;
16472;SDS011;8347;52.486;13.432;2024-02-04T11:03:06;5.70;;;1.52;;
16472;SDS011;8347;52.486;13.432;2024-02-04T11:05:53;4.75;;;1.63;;
16472;SDS011;8347;52.486;13.432;2024-02-04T11:08:40;9.52;;;2.33;;
16472;SDS011;8347;52.486;13.432;2024-02-04T11:11:28;6.50;;;1.65;;
16472;SDS011;8347;52.486;13.432;2024-02-04T11:14:16;7.78;;;2.17;;
16472;SDS011;8347;52.486;13.432;2024-02-04T11:17:12;5.22;;;1.88;;
16472;SDS011;8347;52.486;13.432;2024-02-04T11:26:09;13.63;;;2.35;;
16472;SDS011;8347;52.486;13.432;2024-02-04T11:28:56;5.75;;;2.03;;
16472;SDS011;8347;52.486;13.432;2024-02-04T11:31:43;6.55;;;2.60;;
16472;SDS011;8347;52.486;13.432;2024-02-04T11:34:29;6.60;;;2.47;;
16472;SDS011;8347;52.486;13.432;2024-02-04T11:37:16;8.00;;;2.53;;
16472;SDS011;8347;52.486;13.432;2024-02-04T11:40:05;6.15;;;3.17;;
16472;SDS011;8347;52.486;13.432;2024-02-04T11:42:51;6.97;;;2.47;;
16472;SDS011;8347;52.486;13.432;2024-02-04T11:45:41;12.35;;;2.30;;
16472;SDS011;8347;52.486;13.432;2024-02-04T11:48:29;3.72;;;1.65;;
16472;SDS011;8347;52.486;13.432;2024-02-04T11:51:22;7.47;;;2.13;;
16472;SDS011;8347;52.486;13.432;2024-02-04T11:54:10;4.97;;;2.53;;
16472;SDS011;8347;52.486;13.432;2024-02-04T11:56:58;9.15;;;1.80;;
16472;SDS011;8347;52.486;13.432;2024-02-04T11:59:45;6.90;;;2.42;;
16472;SDS011;8347;52.486;13.432;2024-02-04T12:02:33;10.35;;;2.70;;
16472;SDS011;8347;52.486;13.432;2024-02-04T12:05:19;8.80;;;2.03;;
16472;SDS011;8347;52.486;13.432;2024-02-04T12:08:07;6.13;;;2.40;;
16472;SDS011;8347;52.486;13.432;2024-02-04T12:10:54;6.38;;;2.58;;
16472;SDS011;8347;52.486;13.432;2024-02-04T12:13:40;13.18;;;3.10;;
16472;SDS011;8347;52.486;13.432;2024-02-04T12:16:28;5.15;;;2.50;;
16472;SDS011;8347;52.486;13.432;2024-02-04T12:19:15;7.70;;;3.13;;
16472;SDS011;8347;52.486;13.432;2024-02-04T12:22:02;6.05;;;2.40;;
16472;SDS011;8347;52.486;13.432;2024-02-04T12:24:54;7.05;;;1.52;;
16472;SDS011;8347;52.486;13.432;2024-02-04T12:27:41;6.35;;;1.60;;
16472;SDS011;8347;52.486;13.432;2024-02-04T12:30:28;6.43;;;1.63;;
16472;SDS011;8347;52.486;13.432;2024-02-04T12:33:17;9.77;;;2.53;;
16472;SDS011;8347;52.486;13.432;2024-02-04T12:36:04;6.03;;;2.08;;
16472;SDS011;8347;52.486;13.432;2024-02-04T12:38:54;6.93;;;1.95;;
16472;SDS011;8347;52.486;13.432;2024-02-04T12:41:50;4.30;;;2.08;;
16472;SDS011;8347;52.486;13.432;2024-02-04T12:44:37;9.15;;;2.25;;
16472;SDS011;8347;52.486;13.432;2024-02-04T12:47:23;6.47;;;2.33;;
16472;SDS011;8347;52.486;13.432;2024-02-04T12:50:12;5.93;;;1.95;;
16472;SDS011;8347;52.486;13.432;2024-02-04T12:53:06;7.50;;;1.92;;
16472;SDS011;8347;52.486;13.432;2024-02-04T12:55:57;7.68;;;2.70;;
16472;SDS011;8347;52.486;13.432;2024-02-04T12:58:44;10.13;;;2.45;;
16472;SDS011;8347;52.486;13.432;2024-02-04T13:01:31;4.95;;;2.25;;
16472;SDS011;8347;52.486;13.432;2024-02-04T13:04:17;6.05;;;1.95;;
16472;SDS011;8347;52.486;13.432;2024-02-04T13:07:07;7.72;;;1.92;;
16472;SDS011;8347;52.486;13.432;2024-02-04T13:09:59;5.10;;;2.50;;
16472;SDS011;8347;52.486;13.432;2024-02-04T13:12:46;7.07;;;2.90;;
16472;SDS011;8347;52.486;13.432;2024-02-04T13:15:33;8.35;;;3.35;;
16472;SDS011;8347;52.486;13.432;2024-02-04T13:18:20;5.28;;;1.65;;
16472;SDS011;8347;52.486;13.432;2024-02-04T13:21:06;12.23;;;3.13;;
16472;SDS011;8347;52.486;13.432;2024-02-04T13:23:52;8.50;;;2.30;;
16472;SDS011;8347;52.486;13.432;2024-02-04T13:26:39;10.38;;;3.22;;
16472;SDS011;8347;52.486;13.432;2024-02-04T13:29:26;12.75;;;4.75;;
16472;SDS011;8347;52.486;13.432;2024-02-04T13:32:13;8.93;;;2.80;;
16472;SDS011;8347;52.486;13.432;2024-02-04T13:35:00;9.98;;;2.65;;
16472;SDS011;8347;52.486;13.432;2024-02-04T13:37:47;13.55;;;3.80;;
16472;SDS011;8347;52.486;13.432;2024-02-04T13:40:36;8.00;;;3.35;;
16472;SDS011;8347;52.486;13.432;2024-02-04T13:43:23;7.40;;;2.65;;
16472;SDS011;8347;52.486;13.432;2024-02-04T13:46:09;15.43;;;4.43;;
16472;SDS011;8347;52.486;13.432;2024-02-04T13:48:56;7.40;;;2.58;;
16472;SDS011;8347;52.486;13.432;2024-02-04T13:51:43;8.30;;;2.47;;
16472;SDS011;8347;52.486;13.432;2024-02-04T13:54:29;11.10;;;3.83;;
16472;SDS011;8347;52.486;13.432;2024-02-04T13:57:16;6.80;;;2.97;;
16472;SDS011;8347;52.486;13.432;2024-02-04T14:00:02;8.38;;;3.78;;
16472;SDS011;8347;52.486;13.432;2024-02-04T14:02:50;11.77;;;4.50;;
16472;SDS011;8347;52.486;13.432;2024-02-04T14:05:37;9.77;;;3.78;;
16472;SDS011;8347;52.486;13.432;2024-02-04T14:08:25;8.25;;;3.50;;
16472;SDS011;8347;52.486;13.432;2024-02-04T14:11:11;13.80;;;3.53;;
16472;SDS011;8347;52.486;13.432;2024-02-04T14:13:58;11.73;;;4.07;;
16472;SDS011;8347;52.486;13.432;2024-02-04T14:16:45;13.55;;;2.92;;
16472;SDS011;8347;52.486;13.432;2024-02-04T14:19:32;12.43;;;3.78;;
16472;SDS011;8347;52.486;13.432;2024-02-04T14:22:19;13.65;;;4.68;;
16472;SDS011;8347;52.486;13.432;2024-02-04T14:25:06;13.23;;;3.00;;
16472;SDS011;8347;52.486;13.432;2024-02-04T14:27:52;5.47;;;2.50;;
16472;SDS011;8347;52.486;13.432;2024-02-04T14:30:39;8.43;;;3.10;;
16472;SDS011;8347;52.486;13.432;2024-02-04T14:33:25;10.50;;;2.78;;
16472;SDS011;8347;52.486;13.432;2024-02-04T14:36:12;12.05;;;3.97;;
16472;SDS011;8347;52.486;13.432;2024-02-04T14:38:58;11.15;;;2.58;;
16472;SDS011;8347;52.486;13.432;2024-02-04T14:41:45;8.95;;;2.85;;
16472;SDS011;8347;52.486;13.432;2024-02-04T14:44:31;19.15;;;4.85;;
16472;SDS011;8347;52.486;13.432;2024-02-04T14:47:18;18.63;;;5.10;;
16472;SDS011;8347;52.486;13.432;2024-02-04T14:50:04;11.35;;;4.22;;
16472;SDS011;8347;52.486;13.432;2024-02-04T14:52:51;10.38;;;2.83;;
16472;SDS011;8347;52.486;13.432;2024-02-04T14:55:38;9.00;;;3.33;;
16472;SDS011;8347;52.486;13.432;2024-02-04T14:58:24;13.75;;;2.72;;
16472;SDS011;8347;52.486;13.432;2024-02-04T15:01:11;14.00;;;4.95;;
16472;SDS011;8347;52.486;13.432;2024-02-04T15:03:57;9.90;;;3.47;;
16472;SDS011;8347;52.486;13.432;2024-02-04T15:06:44;11.27;;;3.80;;
16472;SDS011;8347;52.486;13.432;2024-02-04T15:09:31;21.20;;;6.63;;
16472;SDS011;8347;52.486;13.432;2024-02-04T15:12:17;15.07;;;4.75;;
16472;SDS011;8347;52.486;13.432;2024-02-04T15:15:04;14.00;;;3.75;;
16472;SDS011;8347;52.486;13.432;2024-02-04T15:17:52;12.52;;;3.72;;
16472;SDS011;8347;52.486;13.432;2024-02-04T15:20:39;10.60;;;3.55;;
16472;SDS011;8347;52.486;13.432;2024-02-04T15:23:26;13.48;;;5.78;;
16472;SDS011;8347;52.486;13.432;2024-02-04T15:26:13;11.40;;;4.60;;
16472;SDS011;8347;52.486;13.432;2024-02-04T15:29:01;15.63;;;3.83;;
16472;SDS011;8347;52.486;13.432;2024-02-04T15:31:48;11.82;;;3.22;;
16472;SDS011;8347;52.486;13.432;2024-02-04T15:34:37;10.20;;;3.78;;
16472;SDS011;8347;52.486;13.432;2024-02-04T15:37:24;15.88;;;3.40;;
16472;SDS011;8347;52.486;13.432;2024-02-04T15:40:10;16.75;;;4.75;;
16472;SDS011;8347;52.486;13.432;2024-02-04T15:42:57;15.02;;;4.75;;
16472;SDS011;8347;52.486;13.432;2024-02-04T15:45:46;15.00;;;4.82;;
16472;SDS011;8347;52.486;13.432;2024-02-04T15:48:33;21.92;;;6.93;;
16472;SDS011;8347;52.486;13.432;2024-02-04T15:51:25;7.90;;;3.67;;
16472;SDS011;8347;52.486;13.432;2024-02-04T15:54:11;20.35;;;6.70;;
16472;SDS011;8347;52.486;13.432;2024-02-04T15:57:01;9.23;;;2.78;;
16472;SDS011;8347;52.486;13.432;2024-02-04T15:59:54;17.05;;;3.15;;
16472;SDS011;8347;52.486;13.432;2024-02-04T16:02:46;11.27;;;2.53;;
16472;SDS011;8347;52.486;13.432;2024-02-04T16:05:33;9.02;;;3.55;;
16472;SDS011;8347;52.486;13.432;2024-02-04T16:08:20;7.47;;;3.35;;
16472;SDS011;8347;52.486;13.432;2024-02-04T16:11:09;9.55;;;4.88;;
16472;SDS011;8347;52.486;13.432;2024-02-04T16:14:00;11.57;;;5.50;;
16472;SDS011;8347;52.486;13.432;2024-02-04T16:16:48;11.20;;;5.15;;
16472;SDS011;8347;52.486;13.432;2024-02-04T16:19:37;8.00;;;3.15;;
16472;SDS011;8347;52.486;13.432;2024-02-04T16:22:24;19.50;;;7.57;;
16472;SDS011;8347;52.486;13.432;2024-02-04T16:25:11;33.78;;;10.68;;
16472;SDS011;8347;52.486;13.432;2024-02-04T16:27:59;38.40;;;13.20;;
16472;SDS011;8347;52.486;13.432;2024-02-04T16:30:46;12.25;;;4.85;;
16472;SDS011;8347;52.486;13.432;2024-02-04T16:33:33;10.75;;;3.85;;
16472;SDS011;8347;52.486;13.432;2024-02-04T16:36:21;10.50;;;4.78;;
16472;SDS011;8347;52.486;13.432;2024-02-04T16:39:08;11.90;;;4.63;;
16472;SDS011;8347;52.486;13.432;2024-02-04T16:41:55;13.50;;;5.13;;
16472;SDS011;8347;52.486;13.432;2024-02-04T16:44:42;12.63;;;4.65;;
16472;SDS011;8347;52.486;13.432;2024-02-04T16:47:30;7.38;;;3.67;;
16472;SDS011;8347;52.486;13.432;2024-02-04T16:50:17;12.40;;;4.18;;